createdAt,value
2019-05-06T00:01:07.690Z,1.60
2019-05-06T00:03:45.125Z,1.75
2019-05-06T00:06:23.530Z,1.80
2019-05-06T00:09:01.367Z,1.62
2019-05-06T00:11:44.870Z,1.00
2019-05-06T00:14:23.553Z,1.50
2019-05-06T00:17:03.894Z,1.32
2019-05-06T00:19:45.369Z,1.65
2019-05-06T00:22:24.790Z,1.10
2019-05-06T00:25:10.677Z,1.10
2019-05-06T00:28:05.863Z,1.20
2019-05-06T00:30:43.951Z,1.52
2019-05-06T00:33:21.499Z,1.62
2019-05-06T00:36:01.387Z,1.85
2019-05-06T00:38:41.441Z,1.20
2019-05-06T00:41:25.359Z,1.67
2019-05-06T00:44:05.528Z,1.70
2019-05-06T00:46:40.686Z,1.32
2019-05-06T00:49:18.106Z,1.80
2019-05-06T00:51:55.792Z,2.17
2019-05-06T00:54:34.181Z,2.35
2019-05-06T00:57:13.974Z,1.40
2019-05-06T00:59:49.167Z,1.47
2019-05-06T01:02:26.786Z,1.60
2019-05-06T01:05:07.371Z,2.60
2019-05-06T01:07:54.738Z,1.40
2019-05-06T01:10:34.394Z,1.30
2019-05-06T01:13:28.063Z,1.10
2019-05-06T01:16:06.122Z,1.12
2019-05-06T01:18:45.453Z,1.10
2019-05-06T01:21:23.782Z,1.07
2019-05-06T01:24:03.783Z,1.45
2019-05-06T01:26:44.170Z,1.07
2019-05-06T01:29:24.201Z,1.02
2019-05-06T01:32:03.523Z,1.30
2019-05-06T01:34:40.432Z,1.10
2019-05-06T01:37:24.037Z,1.40
2019-05-06T01:40:14.491Z,1.50
2019-05-06T01:43:11.270Z,1.17
2019-05-06T01:45:49.167Z,1.20
2019-05-06T01:48:44.323Z,1.50
2019-05-06T01:51:24.335Z,1.20
2019-05-06T01:54:03.746Z,0.90
2019-05-06T01:56:44.195Z,1.85
2019-05-06T01:59:21.201Z,1.15
2019-05-06T02:02:02.225Z,1.17
2019-05-06T02:04:44.376Z,2.92
2019-05-06T02:07:24.081Z,1.32
2019-05-06T02:10:03.968Z,1.07
2019-05-06T02:12:44.245Z,0.88
2019-05-06T02:15:23.886Z,1.05
2019-05-06T02:18:03.919Z,1.00
2019-05-06T02:20:44.425Z,1.30
2019-05-06T02:23:24.138Z,1.20
2019-05-06T02:26:02.116Z,1.42
2019-05-06T02:28:43.553Z,1.50
2019-05-06T02:31:37.056Z,1.20
2019-05-06T02:34:25.124Z,0.98
2019-05-06T02:37:25.378Z,1.87
2019-05-06T02:40:03.829Z,1.42
2019-05-06T02:42:38.111Z,0.90
2019-05-06T02:45:16.093Z,1.20
2019-05-06T02:48:17.108Z,1.55
2019-05-06T02:51:07.185Z,1.42
2019-05-06T02:53:45.008Z,0.93
2019-05-06T02:56:20.069Z,0.85
2019-05-06T02:58:57.706Z,0.90
2019-05-06T03:01:35.668Z,1.30
2019-05-06T03:04:13.063Z,1.47
2019-05-06T03:06:47.031Z,1.52
2019-05-06T03:09:26.644Z,1.35
2019-05-06T03:12:06.496Z,1.42
2019-05-06T03:14:44.188Z,1.80
2019-05-06T03:17:23.739Z,1.62
2019-05-06T03:20:04.188Z,1.00
2019-05-06T03:22:48.195Z,1.35
2019-05-06T03:25:33.194Z,1.40
2019-05-06T03:28:13.079Z,1.30
2019-05-06T03:30:55.901Z,1.98
2019-05-06T03:33:47.474Z,1.90
2019-05-06T03:36:18.608Z,1.50
2019-05-06T03:38:48.471Z,2.10
2019-05-06T03:41:26.714Z,1.20
2019-05-06T03:44:03.240Z,1.55
2019-05-06T03:47:05.276Z,1.90
2019-05-06T03:49:43.149Z,2.95
2019-05-06T03:52:23.251Z,1.00
2019-05-06T03:55:03.623Z,1.27
2019-05-06T03:57:42.848Z,1.47
2019-05-06T04:00:23.831Z,1.75
2019-05-06T04:03:03.122Z,1.27
2019-05-06T04:05:43.758Z,1.30
2019-05-06T04:08:24.171Z,1.10
2019-05-06T04:10:59.540Z,1.30
2019-05-06T04:13:35.327Z,1.30
2019-05-06T04:16:23.068Z,1.25
2019-05-06T04:19:33.126Z,1.00
2019-05-06T04:22:27.184Z,1.20
2019-05-06T04:25:29.007Z,1.40
2019-05-06T04:28:19.042Z,0.90
2019-05-06T04:30:59.215Z,1.17
2019-05-06T04:33:37.192Z,1.25
2019-05-06T04:39:27.739Z,1.55
2019-05-06T04:42:13.885Z,1.20
2019-05-06T04:44:53.924Z,1.07
2019-05-06T04:47:32.606Z,1.27
2019-05-06T04:50:05.874Z,1.40
2019-05-06T04:52:45.082Z,1.30
2019-05-06T04:55:22.823Z,1.20
2019-05-06T05:01:23.112Z,3.90
2019-05-06T05:04:03.476Z,1.02
2019-05-06T05:06:52.456Z,1.40
2019-05-06T05:09:32.405Z,1.52
2019-05-06T05:12:23.352Z,1.10
2019-05-06T05:15:07.371Z,2.00
2019-05-06T05:18:39.531Z,1.45
2019-05-06T05:21:16.467Z,1.50
2019-05-06T05:23:52.847Z,1.65
2019-05-06T05:26:33.063Z,1.25
2019-05-06T05:29:12.211Z,1.65
2019-05-06T05:31:52.826Z,1.42
2019-05-06T05:34:39.530Z,1.22
2019-05-06T05:37:09.250Z,1.07
2019-05-06T05:39:52.130Z,1.10
2019-05-06T05:42:54.687Z,2.77
2019-05-06T05:45:32.794Z,2.22
2019-05-06T05:48:12.598Z,1.20
2019-05-06T05:50:55.005Z,1.10
2019-05-06T05:53:33.148Z,0.88
2019-05-06T05:56:08.350Z,0.90
2019-05-06T05:58:43.562Z,1.60
2019-05-06T06:01:23.260Z,1.40
2019-05-06T06:04:02.840Z,1.00
2019-05-06T06:06:39.300Z,0.70
2019-05-06T06:09:15.713Z,1.22
2019-05-06T06:11:57.536Z,1.10
2019-05-06T06:14:56.654Z,1.47
2019-05-06T06:18:05.284Z,1.67
2019-05-06T06:21:27.137Z,1.10
2019-05-06T06:24:03.159Z,1.62
2019-05-06T06:26:38.625Z,1.22
2019-05-06T06:29:15.372Z,2.30
2019-05-06T06:32:13.752Z,1.20
2019-05-06T06:35:12.113Z,1.20
2019-05-06T06:38:19.215Z,1.10
2019-05-06T06:40:56.961Z,1.72
2019-05-06T06:43:34.698Z,1.12
2019-05-06T06:46:13.618Z,1.92
2019-05-06T06:48:52.617Z,1.30
2019-05-06T06:51:32.903Z,1.80
2019-05-06T06:54:06.705Z,1.50
2019-05-06T06:57:08.868Z,1.85
2019-05-06T06:59:58.804Z,1.42
2019-05-06T07:02:43.238Z,1.42
2019-05-06T07:05:34.133Z,1.90
2019-05-06T07:08:12.541Z,1.70
2019-05-06T07:10:52.523Z,1.22
2019-05-06T07:13:32.764Z,1.15
2019-05-06T07:16:14.891Z,3.70
2019-05-06T07:18:52.792Z,2.10
2019-05-06T07:21:43.734Z,2.60
2019-05-06T07:24:23.428Z,2.60
2019-05-06T07:27:22.825Z,1.85
2019-05-06T07:30:02.999Z,1.87
2019-05-06T07:32:43.921Z,2.37
2019-05-06T07:35:23.794Z,1.60
2019-05-06T07:38:02.448Z,1.80
2019-05-06T07:40:41.905Z,2.10
2019-05-06T07:43:37.457Z,1.40
2019-05-06T07:46:23.738Z,1.50
2019-05-06T07:48:58.880Z,1.98
2019-05-06T07:51:34.015Z,1.65
2019-05-06T07:54:09.308Z,1.98
2019-05-06T07:56:44.291Z,1.92
2019-05-06T07:59:22.525Z,2.22
2019-05-06T08:02:02.109Z,2.05
2019-05-06T08:04:39.191Z,2.37
2019-05-06T08:07:15.646Z,2.02
2019-05-06T08:09:53.226Z,2.25
2019-05-06T08:12:28.453Z,2.00
2019-05-06T08:15:06.510Z,2.25
2019-05-06T08:17:45.091Z,2.62
2019-05-06T08:20:25.618Z,3.22
2019-05-06T08:23:12.618Z,3.25
2019-05-06T08:26:10.026Z,3.20
2019-05-06T08:28:41.451Z,3.00
2019-05-06T08:31:13.754Z,3.42
2019-05-06T08:33:52.486Z,4.60
2019-05-06T08:36:37.788Z,4.80
2019-05-06T08:39:15.976Z,4.17
2019-05-06T08:41:52.885Z,3.42
2019-05-06T08:44:27.659Z,3.25
2019-05-06T08:47:06.563Z,3.87
2019-05-06T08:50:07.273Z,4.87
2019-05-06T08:52:58.172Z,6.20
2019-05-06T08:55:35.876Z,3.67
2019-05-06T08:58:13.944Z,3.65
2019-05-06T09:01:08.334Z,4.75
2019-05-06T09:03:46.268Z,4.80
2019-05-06T09:06:31.540Z,5.90
2019-05-06T09:09:07.412Z,6.30
2019-05-06T09:11:45.616Z,6.55
2019-05-06T09:14:24.657Z,6.70
2019-05-06T09:17:04.549Z,7.78
2019-05-06T09:19:45.191Z,7.03
2019-05-06T09:22:23.494Z,7.12
2019-05-06T09:25:02.473Z,7.03
2019-05-06T09:28:02.339Z,6.72
2019-05-06T09:30:55.049Z,6.03
2019-05-06T09:39:45.196Z,6.03
2019-05-06T09:42:25.762Z,6.50
2019-05-06T09:45:05.212Z,5.70
2019-05-06T09:48:09.620Z,6.92
2019-05-06T09:50:49.732Z,6.80
2019-05-06T09:53:44.757Z,8.60
2019-05-06T09:56:33.924Z,6.20
2019-05-06T09:59:13.915Z,6.83
2019-05-06T10:01:54.274Z,6.83
2019-05-06T10:04:32.988Z,11.50
2019-05-06T10:07:11.901Z,59.65
2019-05-06T10:09:52.359Z,15.68
2019-05-06T10:12:29.167Z,5.83
2019-05-06T10:15:09.328Z,6.42
2019-05-06T10:17:48.727Z,6.35
2019-05-06T10:20:28.530Z,6.37
2019-05-06T10:23:08.365Z,6.47
2019-05-06T10:25:46.470Z,6.55
2019-05-06T10:28:52.339Z,6.25
2019-05-06T10:31:34.004Z,6.45
2019-05-06T10:34:15.619Z,6.25
2019-05-06T10:37:12.609Z,5.90
2019-05-06T10:39:44.571Z,6.20
2019-05-06T10:42:27.379Z,5.87
2019-05-06T10:45:12.249Z,5.87
2019-05-06T10:47:51.129Z,6.95
2019-05-06T10:50:33.144Z,6.42
2019-05-06T10:53:32.951Z,6.83
2019-05-06T10:56:28.466Z,8.43
2019-05-06T10:59:09.834Z,7.80
2019-05-06T11:01:50.216Z,7.22
2019-05-06T11:04:32.662Z,7.87
2019-05-06T11:07:07.236Z,7.92
2019-05-06T11:09:45.401Z,7.60
2019-05-06T11:12:26.477Z,8.53
2019-05-06T11:15:05.912Z,7.97
2019-05-06T11:17:44.522Z,7.87
2019-05-06T11:20:19.993Z,7.60
2019-05-06T11:22:58.054Z,7.67
2019-05-06T11:25:37.919Z,7.00
2019-05-06T11:28:35.212Z,7.47
2019-05-06T11:31:33.189Z,6.65
2019-05-06T11:34:27.398Z,6.17
2019-05-06T11:37:25.165Z,6.90
2019-05-06T11:40:03.407Z,6.80
2019-05-06T11:42:43.888Z,7.15
2019-05-06T11:45:24.444Z,6.92
2019-05-06T11:48:04.410Z,6.95
2019-05-06T11:50:47.202Z,7.50
2019-05-06T11:53:28.933Z,6.30
2019-05-06T11:56:12.591Z,7.28
2019-05-06T11:58:55.698Z,8.45
2019-05-06T12:01:37.464Z,7.25
2019-05-06T12:04:28.788Z,6.30
2019-05-06T12:07:11.127Z,6.97
2019-05-06T12:09:54.292Z,6.10
2019-05-06T12:12:34.222Z,6.50
2019-05-06T12:15:30.157Z,6.05
2019-05-06T12:18:45.607Z,6.42
2019-05-06T12:20:52.614Z,6.65
2019-05-06T12:23:57.811Z,6.80
2019-05-06T12:26:38.694Z,7.25
2019-05-06T12:29:23.761Z,7.08
2019-05-06T12:32:39.814Z,7.45
2019-05-06T12:35:25.100Z,7.03
2019-05-06T12:38:30.096Z,8.00
2019-05-06T12:40:59.908Z,8.18
2019-05-06T12:44:03.803Z,7.78
2019-05-06T12:50:33.182Z,7.35
2019-05-06T12:53:20.165Z,7.08
2019-05-06T12:55:58.939Z,7.00
2019-05-06T13:01:54.047Z,6.33
2019-05-06T13:04:59.648Z,6.12
2019-05-06T13:07:52.845Z,6.00
2019-05-06T13:10:58.894Z,6.15
2019-05-06T13:13:59.723Z,5.83
2019-05-06T13:16:37.495Z,5.40
2019-05-06T13:19:22.899Z,6.20
2019-05-06T13:22:17.500Z,5.87
2019-05-06T13:24:58.240Z,5.28
2019-05-06T13:28:09.608Z,5.72
2019-05-06T13:34:09.210Z,6.00
2019-05-06T13:37:07.425Z,6.62
2019-05-06T13:39:46.633Z,6.30
2019-05-06T13:42:27.701Z,6.30
2019-05-06T13:45:08.750Z,5.78
2019-05-06T13:48:03.851Z,6.00
2019-05-06T13:50:44.231Z,6.12
2019-05-06T13:53:24.484Z,6.30
2019-05-06T13:56:04.662Z,6.70
2019-05-06T13:58:44.848Z,6.72
2019-05-06T14:01:25.283Z,6.58
2019-05-06T14:04:04.035Z,6.00
2019-05-06T14:06:47.713Z,6.15
2019-05-06T14:09:32.037Z,6.03
2019-05-06T14:12:06.369Z,5.53
2019-05-06T14:14:43.953Z,5.45
2019-05-06T14:17:23.024Z,5.15
2019-05-06T14:20:02.825Z,5.35
2019-05-06T14:22:43.891Z,5.53
2019-05-06T14:25:52.695Z,5.28
2019-05-06T14:28:39.582Z,4.90
2019-05-06T14:31:25.747Z,5.30
2019-05-06T14:34:05.628Z,5.28
2019-05-06T14:36:43.522Z,5.28
2019-05-06T14:39:44.767Z,5.40
2019-05-06T14:42:07.893Z,5.47
2019-05-06T14:44:45.919Z,5.03
2019-05-06T14:47:28.198Z,5.12
2019-05-06T14:50:05.796Z,5.28
2019-05-06T14:52:43.489Z,5.22
2019-05-06T14:55:32.604Z,5.03
2019-05-06T14:58:12.082Z,5.35
2019-05-06T15:00:53.204Z,5.37
2019-05-06T15:03:32.587Z,5.42
2019-05-06T15:06:13.947Z,4.85
2019-05-06T15:08:51.566Z,5.47
2019-05-06T15:11:32.456Z,4.90
2019-05-06T15:14:12.893Z,5.40
2019-05-06T15:16:52.941Z,4.78
2019-05-06T15:19:32.239Z,4.95
2019-05-06T15:22:09.724Z,4.67
2019-05-06T15:24:47.311Z,4.78
2019-05-06T15:27:25.104Z,4.75
2019-05-06T15:30:04.176Z,4.97
2019-05-06T15:32:42.969Z,4.80
2019-05-06T15:35:52.382Z,5.12
2019-05-06T15:38:32.228Z,5.30
2019-05-06T15:41:12.873Z,4.42
2019-05-06T15:43:50.815Z,5.33
2019-05-06T15:46:32.170Z,4.70
2019-05-06T15:49:13.103Z,4.70
2019-05-06T15:51:52.255Z,4.83
2019-05-06T15:54:29.464Z,4.70
2019-05-06T15:57:07.160Z,4.40
2019-05-06T15:59:44.698Z,4.70
2019-05-06T16:02:23.206Z,5.17
2019-05-06T16:05:11.564Z,4.35
2019-05-06T16:07:47.707Z,4.60
2019-05-06T16:10:27.660Z,4.60
2019-05-06T16:13:05.368Z,4.85
2019-05-06T16:15:43.269Z,4.30
2019-05-06T16:18:23.203Z,4.37
2019-05-06T16:21:00.091Z,4.72
2019-05-06T16:23:47.958Z,4.30
2019-05-06T16:26:27.941Z,4.60
2019-05-06T16:29:07.338Z,4.50
2019-05-06T16:31:46.700Z,4.47
2019-05-06T16:34:27.787Z,4.65
2019-05-06T16:37:07.842Z,4.47
2019-05-06T16:39:45.493Z,4.75
2019-05-06T16:42:26.947Z,4.53
2019-05-06T16:45:06.988Z,4.50
2019-05-06T16:47:44.422Z,4.40
2019-05-06T16:50:22.596Z,4.58
2019-05-06T16:53:02.747Z,4.30
2019-05-06T16:56:13.345Z,4.42
2019-05-06T16:58:54.609Z,4.60
2019-05-06T17:01:34.102Z,4.20
2019-05-06T17:04:34.150Z,4.03
2019-05-06T17:07:13.973Z,4.50
2019-05-06T17:09:53.599Z,4.50
2019-05-06T17:12:31.950Z,5.05
2019-05-06T17:15:10.429Z,4.70
2019-05-06T17:17:47.923Z,5.08
2019-05-06T17:20:26.019Z,4.92
2019-05-06T17:23:03.615Z,5.42
2019-05-06T17:25:45.318Z,5.55
2019-05-06T17:28:44.616Z,6.22
2019-05-06T17:31:47.649Z,6.42
2019-05-06T17:34:33.344Z,7.10
2019-05-06T17:37:28.307Z,8.35
2019-05-06T17:40:10.796Z,9.38
2019-05-06T17:42:46.956Z,9.20
2019-05-06T17:45:58.303Z,9.45
2019-05-06T17:48:42.433Z,10.03
2019-05-06T17:53:52.252Z,10.00
2019-05-06T17:56:31.755Z,10.25
2019-05-06T17:59:13.044Z,10.35
2019-05-06T18:04:29.057Z,9.53
2019-05-06T18:07:07.103Z,9.55
2019-05-06T18:09:45.934Z,9.88
2019-05-06T18:12:24.177Z,9.90
2019-05-06T18:15:03.413Z,10.13
2019-05-06T18:17:42.911Z,9.60
2019-05-06T18:20:22.150Z,9.30
2019-05-06T18:23:03.264Z,8.85
2019-05-06T18:25:43.070Z,9.03
2019-05-06T18:28:22.776Z,8.40
2019-05-06T18:31:03.147Z,7.90
2019-05-06T18:33:40.533Z,8.05
2019-05-06T18:36:18.227Z,7.92
2019-05-06T18:38:58.281Z,7.92
2019-05-06T18:41:35.872Z,7.90
2019-05-06T18:44:13.472Z,8.28
2019-05-06T18:46:52.865Z,8.35
2019-05-06T18:49:29.841Z,8.83
2019-05-06T18:52:09.302Z,8.53
2019-05-06T18:54:46.852Z,8.70
2019-05-06T18:57:24.461Z,8.60
2019-05-06T19:00:03.123Z,9.70
2019-05-06T19:02:42.321Z,9.65
2019-05-06T19:05:27.113Z,9.20
2019-05-06T19:08:05.194Z,8.65
2019-05-06T19:10:42.836Z,9.60
2019-05-06T19:13:22.352Z,9.28
2019-05-06T19:16:02.125Z,9.38
2019-05-06T19:18:42.625Z,9.05
2019-05-06T19:21:24.329Z,9.25
2019-05-06T19:24:02.784Z,9.00
2019-05-06T19:26:40.531Z,9.05
2019-05-06T19:29:18.145Z,8.70
2019-05-06T19:31:55.664Z,9.40
2019-05-06T19:34:36.847Z,8.55
2019-05-06T19:37:15.851Z,9.28
2019-05-06T19:39:53.477Z,8.20
2019-05-06T19:42:45.754Z,7.22
2019-05-06T19:45:12.964Z,6.80
2019-05-06T19:47:52.355Z,6.83
2019-05-06T19:50:32.979Z,5.90
2019-05-06T19:53:11.698Z,6.10
2019-05-06T19:55:50.304Z,5.72
2019-05-06T19:58:28.054Z,5.72
2019-05-06T20:01:06.824Z,5.67
2019-05-06T20:03:46.593Z,5.90
2019-05-06T20:06:41.533Z,6.12
2019-05-06T20:09:28.052Z,5.50
2019-05-06T20:12:12.153Z,6.25
2019-05-06T20:14:48.577Z,6.20
2019-05-06T20:17:28.718Z,6.08
2019-05-06T20:20:08.053Z,5.50
2019-05-06T20:22:47.635Z,5.55
2019-05-06T20:25:25.314Z,5.90
2019-05-06T20:28:02.918Z,5.87
2019-05-06T20:30:42.141Z,6.12
2019-05-06T20:33:19.207Z,5.53
2019-05-06T20:35:56.834Z,5.22
2019-05-06T20:38:35.701Z,5.78
2019-05-06T20:41:13.558Z,5.30
2019-05-06T20:43:51.225Z,5.30
2019-05-06T20:46:28.871Z,5.55
2019-05-06T20:49:08.212Z,4.85
2019-05-06T20:51:46.107Z,5.30
2019-05-06T20:54:24.961Z,5.30
2019-05-06T20:57:04.387Z,5.17
2019-05-06T20:59:42.193Z,4.80
2019-05-06T21:02:17.364Z,4.35
2019-05-06T21:04:54.847Z,4.00
2019-05-06T21:07:33.050Z,4.83
2019-05-06T21:10:12.653Z,4.47
2019-05-06T21:12:50.429Z,4.60
2019-05-06T21:15:28.194Z,4.20
2019-05-06T21:18:05.785Z,4.20
2019-05-06T21:20:45.161Z,3.65
2019-05-06T21:23:22.816Z,4.22
2019-05-06T21:26:03.117Z,4.10
2019-05-06T21:28:39.207Z,4.12
2019-05-06T21:31:18.232Z,3.98
2019-05-06T21:33:57.582Z,4.60
2019-05-06T21:36:35.565Z,4.30
2019-05-06T21:39:14.223Z,3.98
2019-05-06T21:41:53.380Z,4.17
2019-05-06T21:44:33.292Z,5.65
2019-05-06T21:47:11.255Z,4.90
2019-05-06T21:49:53.364Z,4.10
2019-05-06T21:52:39.267Z,4.40
2019-05-06T21:55:13.432Z,4.30
2019-05-06T21:58:02.872Z,4.47
2019-05-06T22:00:45.528Z,4.45
2019-05-06T22:03:25.308Z,4.50
2019-05-06T22:06:02.968Z,4.30
2019-05-06T22:08:42.639Z,4.30
2019-05-06T22:11:20.307Z,4.30
2019-05-06T22:14:01.563Z,4.00
2019-05-06T22:16:39.527Z,4.37
2019-05-06T22:19:17.381Z,4.05
2019-05-06T22:22:04.804Z,4.40
2019-05-06T22:24:55.655Z,4.15
2019-05-06T22:27:32.962Z,4.47
2019-05-06T22:30:11.036Z,4.22
2019-05-06T22:32:52.694Z,4.58
2019-05-06T22:35:27.379Z,4.60
2019-05-06T22:38:06.762Z,4.28
2019-05-06T22:40:42.499Z,4.62
2019-05-06T22:43:21.861Z,4.45
2019-05-06T22:46:02.594Z,4.12
2019-05-06T22:48:43.363Z,5.25
2019-05-06T22:51:17.758Z,5.00
2019-05-06T22:53:56.785Z,5.15
2019-05-06T22:56:38.384Z,4.65
2019-05-06T22:59:17.598Z,3.70
2019-05-06T23:02:13.146Z,3.75
2019-05-06T23:04:53.161Z,3.83
2019-05-06T23:07:33.566Z,3.67
2019-05-06T23:10:11.176Z,3.40
2019-05-06T23:12:48.827Z,3.20
2019-05-06T23:15:28.541Z,3.05
2019-05-06T23:18:05.650Z,3.25
2019-05-06T23:20:45.979Z,3.10
2019-05-06T23:23:25.618Z,3.10
2019-05-06T23:26:16.419Z,3.77
2019-05-06T23:28:55.334Z,3.42
2019-05-06T23:31:33.363Z,3.62
2019-05-06T23:34:12.503Z,3.35
2019-05-06T23:37:26.341Z,3.37
2019-05-06T23:40:42.744Z,3.20
2019-05-06T23:43:52.051Z,3.40
2019-05-06T23:46:43.151Z,3.10
2019-05-06T23:49:33.691Z,2.90
2019-05-06T23:52:43.112Z,2.75
2019-05-06T23:55:52.157Z,2.58
2019-05-06T23:58:24.772Z,2.70
